Time;durP1;ratioP1;P1;durP2;ratioP2;P2;SDS_P1;SDS_P2;PMS_P1;PMS_P2;Temp;Humidity;BMP_temperature;BMP_pressure;BME280_temperature;BME280_humidity;BME280_pressure;Samples;Min_cycle;Max_cycle;Signal;HPM_P1;HPM_P2
2022/07/02 00:02:12;;;;;;;1999.90;999.90;;;13.90;99.90;;;;;;5113494;28;20063;-60
2022/07/02 00:04:43;;;;;;;1999.90;999.90;;;13.80;99.90;;;;;;5112816;28;20054;-60
2022/07/02 00:07:09;;;;;;;1999.90;999.90;;;13.80;99.90;;;;;;5113636;28;20184;-60
2022/07/02 00:09:37;;;;;;;1999.90;999.90;;;13.70;99.90;;;;;;5112839;28;20435;-60
2022/07/02 00:12:03;;;;;;;566.70;533.47;;;13.70;99.90;;;;;;5113688;28;20109;-60
2022/07/02 00:14:29;;;;;;;512.67;482.08;;;13.60;99.90;;;;;;5113277;28;20031;-60
2022/07/02 00:16:56;;;;;;;556.80;523.42;;;13.60;99.90;;;;;;5112131;28;20728;-60
2022/07/02 00:19:22;;;;;;;567.47;534.17;;;13.50;99.90;;;;;;5113604;28;20345;-60
2022/07/02 00:21:49;;;;;;;496.70;469.25;;;13.60;99.90;;;;;;5113274;28;20096;-60
2022/07/02 00:24:15;;;;;;;486.83;458.23;;;13.60;99.90;;;;;;5112660;28;20054;-60
2022/07/02 00:26:49;;;;;;;480.42;451.42;;;13.60;99.90;;;;;;5113504;28;20063;-60
2022/07/02 00:29:21;;;;;;;660.92;617.35;;;13.60;99.90;;;;;;5113349;28;20475;-60
2022/07/02 00:31:49;;;;;;;669.05;622.40;;;13.60;99.90;;;;;;5093842;28;20091;-60
2022/07/02 00:34:16;;;;;;;598.72;557.00;;;13.50;99.90;;;;;;5113520;28;20094;-60
2022/07/02 00:36:44;;;;;;;614.90;573.10;;;13.40;99.90;;;;;;5113199;28;20481;-60
2022/07/02 00:39:10;;;;;;;575.70;539.10;;;13.30;99.90;;;;;;5111689;28;20124;-60
2022/07/02 00:41:37;;;;;;;671.95;624.88;;;13.20;99.90;;;;;;5094753;28;20434;-60
2022/07/02 00:44:05;;;;;;;636.78;593.00;;;13.10;99.90;;;;;;5112830;28;20047;-60
2022/07/02 00:46:32;;;;;;;574.25;533.05;;;13.10;99.90;;;;;;5112182;28;20066;-60
2022/07/02 00:49:00;;;;;;;560.80;525.72;;;13.10;99.90;;;;;;5112873;28;20039;-60
2022/07/02 00:51:26;;;;;;;615.25;576.92;;;13.00;99.90;;;;;;5094854;28;20047;-60
2022/07/02 00:53:53;;;;;;;685.70;632.47;;;12.90;99.90;;;;;;5112106;28;20508;-60
2022/07/02 00:56:19;;;;;;;622.38;580.40;;;12.90;99.90;;;;;;5094967;28;20408;-60
2022/07/02 00:58:45;;;;;;;593.88;557.28;;;12.80;99.90;;;;;;5112178;28;20059;-60
2022/07/02 01:01:11;;;;;;;627.78;586.72;;;12.70;99.90;;;;;;5112280;28;20043;-60
2022/07/02 01:03:38;;;;;;;656.15;612.60;;;12.70;99.90;;;;;;5113084;28;20040;-60
2022/07/02 01:06:04;;;;;;;694.22;640.85;;;12.60;99.90;;;;;;5111843;28;20445;-60
2022/07/02 01:11:17;;;;;;;710.92;661.13;;;12.60;99.90;;;;;;5112893;28;20055;-59
2022/07/02 01:13:43;;;;;;;730.05;676.45;;;12.70;99.90;;;;;;5112110;28;20122;-60
2022/07/02 01:16:09;;;;;;;706.60;657.20;;;12.80;99.90;;;;;;5112136;28;20043;-60
2022/07/02 01:18:37;;;;;;;798.20;736.42;;;12.80;99.90;;;;;;5112833;28;20048;-60
2022/07/02 01:21:04;;;;;;;802.00;733.28;;;12.80;99.90;;;;;;5116289;28;20044;-60
2022/07/02 01:23:29;;;;;;;735.67;672.10;;;12.70;99.90;;;;;;5116220;28;20054;-60
2022/07/02 01:25:55;;;;;;;603.13;564.17;;;12.60;99.90;;;;;;5117037;28;20043;-59
2022/07/02 01:28:22;;;;;;;665.08;618.55;;;12.60;99.90;;;;;;5116266;28;20042;-60
2022/07/02 01:30:48;;;;;;;626.78;587.22;;;12.50;99.90;;;;;;5116634;28;20606;-60
2022/07/02 01:33:14;;;;;;;653.30;611.60;;;12.50;99.90;;;;;;5116609;28;20385;-60
2022/07/02 01:35:40;;;;;;;743.53;690.75;;;12.50;99.90;;;;;;5116135;28;20157;-60
2022/07/02 01:38:05;;;;;;;747.33;692.75;;;12.50;99.90;;;;;;5116145;28;20066;-60
2022/07/02 01:40:31;;;;;;;624.67;578.40;;;12.50;99.90;;;;;;5116648;28;20040;-60
2022/07/02 01:42:57;;;;;;;616.05;577.53;;;12.50;99.90;;;;;;5115462;28;20497;-60
2022/07/02 01:45:23;;;;;;;579.92;542.45;;;12.60;99.90;;;;;;5116745;28;20445;-59
2022/07/02 01:47:49;;;;;;;598.78;551.20;;;12.70;99.90;;;;;;5116294;28;20067;-60
2022/07/02 01:50:15;;;;;;;722.83;670.67;;;12.80;99.90;;;;;;5115126;28;20031;-59
2022/07/02 01:52:42;;;;;;;703.35;651.50;;;12.80;99.90;;;;;;5116213;28;20051;-60
2022/07/02 01:55:08;;;;;;;677.58;632.83;;;12.80;99.90;;;;;;5115444;28;20043;-60
2022/07/02 01:57:35;;;;;;;680.25;633.80;;;12.80;99.90;;;;;;5116301;28;20043;-60
2022/07/02 02:00:04;;;;;;;638.42;596.05;;;12.80;99.90;;;;;;5115993;28;20039;-60
2022/07/02 02:02:30;;;;;;;615.85;570.70;;;12.80;99.90;;;;;;5096846;28;20168;-60
2022/07/02 02:04:56;;;;;;;687.47;641.92;;;12.90;99.90;;;;;;5116013;28;20114;-60
2022/07/02 02:07:22;;;;;;;722.60;673.45;;;13.00;99.90;;;;;;5115915;28;20050;-60
2022/07/02 02:09:48;;;;;;;637.05;595.33;;;13.20;99.90;;;;;;5114660;28;20118;-60
2022/07/02 02:12:14;;;;;;;708.85;660.35;;;13.20;99.90;;;;;;5116200;28;20562;-59
2022/07/02 02:14:39;;;;;;;608.00;568.20;;;13.30;99.90;;;;;;5116076;28;20047;-60
2022/07/02 02:17:06;;;;;;;615.28;576.70;;;13.30;99.90;;;;;;5114334;28;20032;-60
2022/07/02 02:19:32;;;;;;;623.40;582.95;;;13.30;99.90;;;;;;5115663;28;20100;-60
2022/07/02 02:21:57;;;;;;;777.30;713.40;;;13.20;99.90;;;;;;5115812;28;20450;-60
2022/07/02 02:24:23;;;;;;;587.00;547.58;;;13.20;99.90;;;;;;5114877;28;20044;-59
2022/07/02 02:26:49;;;;;;;713.33;666.10;;;13.20;99.90;;;;;;5115430;28;20093;-59
2022/07/02 02:29:15;;;;;;;557.03;520.10;;;13.10;99.90;;;;;;5115685;28;20074;-59
2022/07/02 02:31:41;;;;;;;663.83;620.08;;;13.00;99.90;;;;;;5113234;28;20086;-60
2022/07/02 02:34:06;;;;;;;601.42;558.58;;;12.90;99.90;;;;;;5115517;28;20046;-60
2022/07/02 02:36:32;;;;;;;681.72;632.53;;;12.70;99.90;;;;;;5115311;28;20428;-60
2022/07/02 02:38:58;;;;;;;841.28;771.33;;;12.70;99.90;;;;;;5114149;28;20050;-60
2022/07/02 02:41:24;;;;;;;843.22;774.63;;;12.60;99.90;;;;;;5097044;28;20056;-60
2022/07/02 02:43:50;;;;;;;650.97;603.13;;;12.60;99.90;;;;;;5096471;28;20052;-60
2022/07/02 02:46:15;;;;;;;684.25;631.08;;;12.70;99.90;;;;;;5114268;28;20051;-59
2022/07/02 02:48:41;;;;;;;763.10;693.13;;;12.80;99.90;;;;;;5115432;28;20048;-60
2022/07/02 02:51:09;;;;;;;595.25;550.72;;;12.80;99.90;;;;;;5115039;28;20047;-60
2022/07/02 02:53:35;;;;;;;765.03;693.55;;;12.80;99.90;;;;;;5114092;28;20101;-60
2022/07/02 02:56:02;;;;;;;853.67;750.97;;;12.70;99.90;;;;;;5115389;28;20073;-60
2022/07/02 02:58:28;;;;;;;1041.22;691.72;;;12.70;99.90;;;;;;5114218;28;20230;-59
2022/07/02 03:00:54;;;;;;;683.33;550.58;;;12.50;99.90;;;;;;5114589;28;20075;-59
2022/07/02 03:03:20;;;;;;;1016.83;616.28;;;12.50;99.90;;;;;;5115184;28;20123;-59
2022/07/02 03:05:46;;;;;;;881.45;794.55;;;12.60;99.90;;;;;;5114183;28;20122;-60
2022/07/02 03:08:12;;;;;;;763.38;636.72;;;12.70;99.90;;;;;;5114883;28;20079;-59
2022/07/02 03:10:38;;;;;;;998.22;552.75;;;12.80;99.90;;;;;;5114666;28;20075;-60
2022/07/02 03:13:03;;;;;;;1177.38;617.63;;;12.80;99.90;;;;;;5095895;28;20401;-59
2022/07/02 03:15:29;;;;;;;487.00;360.17;;;12.70;99.90;;;;;;5114533;28;20054;-60
2022/07/02 03:17:55;;;;;;;636.70;564.08;;;12.60;99.90;;;;;;5114812;28;20070;-59
2022/07/02 03:20:20;;;;;;;765.85;592.97;;;12.60;99.90;;;;;;5113571;28;20036;-59
2022/07/02 03:22:46;;;;;;;355.20;316.88;;;12.60;99.90;;;;;;5114179;28;20580;-60
2022/07/02 03:25:12;;;;;;;571.25;391.23;;;12.60;99.90;;;;;;5114884;28;20114;-59
2022/07/02 03:27:38;;;;;;;721.05;460.83;;;12.60;99.90;;;;;;5113522;28;20477;-59
2022/07/02 03:30:06;;;;;;;969.13;514.03;;;12.70;99.90;;;;;;5114203;28;20054;-59
2022/07/02 03:32:31;;;;;;;570.67;314.35;;;12.60;99.90;;;;;;5114341;28;20481;-60
2022/07/02 03:34:57;;;;;;;440.63;364.40;;;12.60;99.90;;;;;;5113698;28;20047;-59
2022/07/02 03:37:27;;;;;;;436.05;368.73;;;12.60;99.90;;;;;;5113707;28;20126;-60
2022/07/02 03:39:54;;;;;;;1999.90;999.90;;;12.60;99.90;;;;;;5114296;28;20460;-60
2022/07/02 03:42:20;;;;;;;1559.50;805.42;;;12.70;99.90;;;;;;5113057;28;20092;-60
2022/07/02 03:44:45;;;;;;;1123.78;603.08;;;12.80;99.90;;;;;;5113904;28;20468;-59
2022/07/02 03:47:11;;;;;;;309.17;275.98;;;12.80;99.90;;;;;;5114242;28;20042;-60
2022/07/02 03:49:37;;;;;;;1999.90;999.90;;;12.90;99.90;;;;;;5113315;28;20142;-60
2022/07/02 03:52:04;;;;;;;1999.90;999.90;;;12.90;99.90;;;;;;5114004;28;20040;-60
2022/07/02 03:54:29;;;;;;;1999.90;999.90;;;13.00;99.90;;;;;;5113946;28;20063;-60
2022/07/02 03:56:55;;;;;;;1571.60;794.75;;;13.00;99.90;;;;;;5113313;28;20043;-60
2022/07/02 03:59:21;;;;;;;1541.35;787.20;;;13.10;99.90;;;;;;5113611;28;20594;-60
2022/07/02 04:01:47;;;;;;;1557.22;801.92;;;13.10;99.90;;;;;;5112960;28;20081;-60
2022/07/02 04:04:13;;;;;;;1568.45;797.95;;;13.10;99.90;;;;;;5113670;28;20477;-60
2022/07/02 04:06:38;;;;;;;1568.25;811.50;;;13.10;99.90;;;;;;5113653;28;20080;-60
2022/07/02 04:09:04;;;;;;;1567.65;811.45;;;13.10;99.90;;;;;;5113024;28;20044;-60
2022/07/02 04:11:30;;;;;;;1571.75;814.38;;;13.10;99.90;;;;;;5113646;28;20057;-60
2022/07/02 04:13:56;;;;;;;1571.57;814.38;;;13.10;99.90;;;;;;5113495;28;20047;-59
2022/07/02 04:16:21;;;;;;;353.70;321.52;;;13.10;99.90;;;;;;5112902;28;20040;-60
2022/07/02 04:18:47;;;;;;;1558.57;802.83;;;13.10;99.90;;;;;;5113447;28;20051;-60
2022/07/02 04:21:13;;;;;;;1579.22;822.53;;;13.10;99.90;;;;;;5113108;28;20449;-60
2022/07/02 04:23:39;;;;;;;377.63;346.05;;;13.00;99.90;;;;;;5112757;28;20048;-60
2022/07/02 04:26:05;;;;;;;334.83;305.58;;;13.10;99.90;;;;;;5113576;28;20046;-59
2022/07/02 04:28:31;;;;;;;468.73;431.23;;;13.10;99.90;;;;;;5113148;28;20123;-60
2022/07/02 04:30:58;;;;;;;498.13;461.63;;;13.10;99.90;;;;;;5112206;28;20040;-60
2022/07/02 04:33:23;;;;;;;635.00;588.13;;;13.20;99.90;;;;;;5113318;28;20054;-59
2022/07/02 04:35:49;;;;;;;568.88;527.40;;;13.20;99.90;;;;;;5113024;28;20035;-59
2022/07/02 04:38:16;;;;;;;678.88;631.72;;;13.20;99.90;;;;;;5093769;28;20096;-60
2022/07/02 04:40:42;;;;;;;660.25;614.63;;;13.30;99.90;;;;;;5113560;28;20470;-59
2022/07/02 04:43:08;;;;;;;493.38;459.52;;;13.30;99.90;;;;;;5112900;28;20073;-60
2022/07/02 04:45:33;;;;;;;658.67;599.70;;;13.30;99.90;;;;;;5112477;28;20443;-59
2022/07/02 04:47:59;;;;;;;678.63;619.75;;;13.40;99.90;;;;;;5112801;28;20562;-59
2022/07/02 04:50:25;;;;;;;530.67;476.25;;;13.50;99.90;;;;;;5113065;28;20075;-60
2022/07/02 04:52:51;;;;;;;458.10;418.45;;;13.50;99.90;;;;;;5111840;28;20039;-60
2022/07/02 04:55:17;;;;;;;541.30;495.73;;;13.60;99.90;;;;;;5112566;28;20040;-59
2022/07/02 04:57:43;;;;;;;563.00;507.35;;;13.60;99.90;;;;;;5112564;28;20046;-60
2022/07/02 05:00:09;;;;;;;577.25;524.97;;;13.70;99.90;;;;;;5111376;28;20048;-60
2022/07/02 05:02:35;;;;;;;611.88;554.97;;;13.80;99.90;;;;;;5113046;28;20048;-60
2022/07/02 05:05:01;;;;;;;472.30;423.63;;;13.80;99.90;;;;;;5111962;28;20051;-60
2022/07/02 05:07:27;;;;;;;481.83;410.20;;;13.90;99.90;;;;;;5112692;28;20043;-60
2022/07/02 05:09:53;;;;;;;533.17;479.85;;;13.90;99.90;;;;;;5113061;28;20051;-60
2022/07/02 05:12:19;;;;;;;511.90;443.20;;;13.90;99.90;;;;;;5111974;28;20032;-60
2022/07/02 05:14:44;;;;;;;496.45;443.90;;;14.00;99.90;;;;;;5111995;28;20079;-60
2022/07/02 05:17:10;;;;;;;395.90;302.48;;;14.00;99.90;;;;;;5112612;28;20039;-59
2022/07/02 05:19:36;;;;;;;356.63;322.52;;;14.10;99.90;;;;;;5111852;28;20054;-60
2022/07/02 05:22:02;;;;;;;439.40;371.05;;;14.20;99.90;;;;;;5112530;28;20035;-60
2022/07/02 05:24:28;;;;;;;393.92;313.55;;;14.20;99.90;;;;;;5112477;28;20524;-60
2022/07/02 05:26:54;;;;;;;287.02;255.35;;;14.20;99.90;;;;;;5111889;28;20044;-60
2022/07/02 05:29:20;;;;;;;1560.88;805.10;;;14.30;99.90;;;;;;5111110;28;20434;-60
2022/07/02 05:31:45;;;;;;;1580.05;821.80;;;14.40;99.90;;;;;;5112568;28;20047;-60
2022/07/02 05:34:11;;;;;;;1999.90;999.90;;;14.50;99.90;;;;;;5111913;28;20646;-60
2022/07/02 05:36:37;;;;;;;1567.68;810.30;;;14.60;99.90;;;;;;5112308;28;20401;-60
2022/07/02 05:39:03;;;;;;;1556.55;801.15;;;14.70;99.90;;;;;;5112301;28;20083;-59
2022/07/02 05:41:28;;;;;;;1999.90;999.90;;;14.80;99.90;;;;;;5111458;28;20076;-60
2022/07/02 05:43:54;;;;;;;1571.60;814.85;;;14.90;99.90;;;;;;5111807;28;20051;-60
2022/07/02 05:46:20;;;;;;;1999.90;999.90;;;15.00;99.90;;;;;;5112634;28;20072;-60
2022/07/02 05:48:46;;;;;;;1999.90;999.90;;;15.10;99.90;;;;;;5110510;28;20044;-60
2022/07/02 05:51:11;;;;;;;1999.90;999.90;;;15.20;99.90;;;;;;5111282;28;20501;-60
2022/07/02 05:53:37;;;;;;;1999.90;999.90;;;15.30;99.90;;;;;;5112132;28;20089;-60
2022/07/02 05:56:04;;;;;;;1999.90;999.90;;;15.40;99.90;;;;;;5111091;28;20071;-60
2022/07/02 05:58:30;;;;;;;1999.90;999.90;;;15.50;99.90;;;;;;5111773;28;20043;-60
2022/07/02 06:00:56;;;;;;;1999.90;999.90;;;15.70;99.90;;;;;;5094165;28;20050;-60
2022/07/02 06:03:22;;;;;;;1999.90;999.90;;;15.70;99.90;;;;;;5111918;28;20438;-60
2022/07/02 06:08:32;;;;;;;1999.90;999.90;;;15.90;99.90;;;;;;5115064;28;20044;-60
2022/07/02 06:10:57;;;;;;;1999.90;999.90;;;16.00;99.90;;;;;;5116274;28;20052;-60
2022/07/02 06:13:23;;;;;;;1999.90;999.90;;;16.00;99.90;;;;;;5115582;28;20044;-60
2022/07/02 06:15:49;;;;;;;1999.90;999.90;;;15.90;99.90;;;;;;5115082;28;20115;-60
2022/07/02 06:18:15;;;;;;;1999.90;999.90;;;15.90;99.90;;;;;;5115702;28;20067;-60
2022/07/02 06:20:41;;;;;;;1999.90;999.90;;;15.90;99.90;;;;;;5115701;28;20071;-60
2022/07/02 06:23:06;;;;;;;1999.90;999.90;;;16.00;99.90;;;;;;5115029;28;20044;-60
2022/07/02 06:25:33;;;;;;;1999.90;999.90;;;16.10;99.90;;;;;;5115439;28;20082;-60
2022/07/02 06:28:00;;;;;;;1999.90;999.90;;;16.10;99.90;;;;;;5115035;28;20473;-60
2022/07/02 06:30:26;;;;;;;1999.90;999.90;;;16.20;99.90;;;;;;5115111;28;20150;-60
2022/07/02 06:32:52;;;;;;;1147.22;635.20;;;16.20;99.90;;;;;;5115597;28;20051;-60
2022/07/02 06:35:17;;;;;;;1999.90;999.90;;;16.20;99.90;;;;;;5115494;28;20688;-60
2022/07/02 06:37:43;;;;;;;1999.90;999.90;;;16.20;99.90;;;;;;5114782;28;20044;-60
2022/07/02 06:40:09;;;;;;;1999.90;999.90;;;16.30;99.90;;;;;;5115580;28;20043;-60
2022/07/02 06:42:35;;;;;;;650.95;478.98;;;16.30;99.90;;;;;;5114843;28;20511;-60
2022/07/02 06:45:02;;;;;;;1319.18;794.85;;;16.30;99.90;;;;;;5114825;28;20047;-60
2022/07/02 06:47:30;;;;;;;1116.35;820.78;;;16.40;99.90;;;;;;5115559;28;20050;-60
2022/07/02 06:49:57;;;;;;;1071.25;780.95;;;16.50;99.90;;;;;;5114923;28;20039;-60
2022/07/02 06:52:24;;;;;;;990.42;707.58;;;16.50;99.90;;;;;;5114190;28;20397;-60
2022/07/02 06:54:50;;;;;;;760.15;706.05;;;16.70;99.90;;;;;;5115102;28;20115;-60
2022/07/02 06:57:15;;;;;;;768.90;714.67;;;16.80;99.90;;;;;;5114921;28;20588;-60
2022/07/02 06:59:41;;;;;;;741.42;690.00;;;16.80;99.90;;;;;;5114101;28;20586;-60
2022/07/02 07:02:08;;;;;;;648.53;608.45;;;16.80;99.90;;;;;;5115321;28;20207;-60
2022/07/02 07:04:35;;;;;;;714.80;668.53;;;16.90;99.90;;;;;;5114058;28;20048;-60
2022/07/02 07:07:03;;;;;;;731.17;683.05;;;16.90;99.90;;;;;;5115025;28;20035;-60
2022/07/02 07:09:30;;;;;;;673.25;629.70;;;16.90;99.90;;;;;;5114426;28;20035;-60
2022/07/02 07:11:56;;;;;;;699.25;652.95;;;17.00;99.90;;;;;;5113779;28;20051;-60
2022/07/02 07:14:22;;;;;;;800.65;740.63;;;17.20;99.90;;;;;;5115059;28;20040;-60
2022/07/02 07:16:48;;;;;;;609.08;572.72;;;17.10;99.90;;;;;;5113995;28;20139;-60
2022/07/02 07:19:14;;;;;;;515.55;488.05;;;17.20;99.90;;;;;;5113132;28;20040;-60
2022/07/02 07:21:42;;;;;;;530.15;501.38;;;17.40;99.90;;;;;;5114736;28;20602;-60
2022/07/02 07:24:09;;;;;;;577.38;541.63;;;17.60;99.90;;;;;;5114569;28;20478;-60
2022/07/02 07:26:36;;;;;;;1613.35;855.95;;;17.60;99.90;;;;;;5113328;28;20046;-60
2022/07/02 07:29:02;;;;;;;479.52;453.73;;;17.60;99.90;;;;;;5114882;28;20047;-60
2022/07/02 07:31:29;;;;;;;567.13;531.40;;;17.70;99.90;;;;;;5114802;28;20143;-60
2022/07/02 07:33:56;;;;;;;645.80;601.65;;;17.70;99.90;;;;;;5113337;28;20497;-60
2022/07/02 07:36:24;;;;;;;499.65;473.23;;;17.60;99.90;;;;;;5113427;28;20036;-60
2022/07/02 07:38:51;;;;;;;567.50;536.40;;;17.60;99.90;;;;;;5113895;28;20046;-60
2022/07/02 07:41:19;;;;;;;544.63;514.50;;;17.70;99.90;;;;;;5113110;28;20051;-60
2022/07/02 07:43:44;;;;;;;1259.53;741.58;;;17.90;99.90;;;;;;5113366;28;20055;-60
2022/07/02 07:46:10;;;;;;;583.17;536.13;;;18.00;99.90;;;;;;5114354;28;20047;-60
2022/07/02 07:48:36;;;;;;;720.40;665.15;;;17.90;99.90;;;;;;5094806;28;20047;-60
2022/07/02 07:51:02;;;;;;;633.20;585.63;;;17.90;99.90;;;;;;5113546;28;20036;-60
2022/07/02 07:53:28;;;;;;;1346.55;819.55;;;17.90;99.90;;;;;;5113540;28;20058;-60
2022/07/02 07:55:54;;;;;;;1999.90;999.90;;;17.90;99.90;;;;;;5112623;28;20043;-60
2022/07/02 07:58:20;;;;;;;1999.90;999.90;;;18.10;99.90;;;;;;5113635;28;20128;-60
2022/07/02 08:00:46;;;;;;;1999.90;999.90;;;18.20;99.90;;;;;;5113904;28;20040;-60
2022/07/02 08:03:14;;;;;;;1999.90;999.90;;;18.40;99.90;;;;;;5112707;28;20110;-60
2022/07/02 08:05:41;;;;;;;1999.90;999.90;;;18.40;99.90;;;;;;5113138;28;20040;-60
2022/07/02 08:08:08;;;;;;;1999.90;999.90;;;18.50;99.90;;;;;;5113014;28;20199;-60
2022/07/02 08:10:34;;;;;;;1999.90;999.90;;;18.60;99.90;;;;;;5113181;28;20040;-60
2022/07/02 08:13:00;;;;;;;1999.90;999.90;;;18.60;99.90;;;;;;5113606;28;20518;-60
2022/07/02 08:15:26;;;;;;;1999.90;999.90;;;18.40;99.90;;;;;;5113008;28;20052;-60
2022/07/02 08:17:53;;;;;;;1999.90;999.90;;;18.30;99.90;;;;;;5113312;28;20066;-60
2022/07/02 08:20:19;;;;;;;1999.90;999.90;;;18.40;99.90;;;;;;5113146;28;20048;-60
2022/07/02 08:22:46;;;;;;;1999.90;999.90;;;18.60;99.90;;;;;;5112814;28;20039;-60
2022/07/02 08:25:14;;;;;;;1999.90;999.90;;;18.70;99.90;;;;;;5113425;28;20106;-60
2022/07/02 08:27:41;;;;;;;1999.90;999.90;;;18.90;99.90;;;;;;5113464;28;20122;-60
2022/07/02 08:30:07;;;;;;;1999.90;999.90;;;19.00;99.90;;;;;;5112166;28;20059;-60
2022/07/02 08:32:33;;;;;;;1134.03;576.70;;;18.80;99.90;;;;;;5113082;28;20092;-60
2022/07/02 08:35:00;;;;;;;1999.90;999.90;;;18.70;99.90;;;;;;5113478;28;20070;-60
2022/07/02 08:37:26;;;;;;;1228.68;616.90;;;18.70;99.90;;;;;;5112413;28;20168;-60
2022/07/02 08:39:52;;;;;;;379.88;260.67;;;18.70;99.20;;;;;;5113157;28;20051;-60
2022/07/02 08:42:24;;;;;;;1999.90;999.90;;;18.70;99.90;;;;;;5112837;28;20528;-60
2022/07/02 08:44:53;;;;;;;1999.90;999.90;;;18.80;99.40;;;;;;5112749;28;20047;-60
2022/07/02 08:47:19;;;;;;;1605.93;811.13;;;18.80;99.90;;;;;;5111834;28;20044;-60
2022/07/02 08:49:47;;;;;;;1999.90;999.90;;;18.70;99.60;;;;;;5112692;28;20031;-60
2022/07/02 08:52:17;;;;;;;1999.90;999.90;;;18.90;99.90;;;;;;5112119;28;20039;-60
2022/07/02 08:54:44;;;;;;;1999.90;999.90;;;19.20;99.90;;;;;;5109668;28;20075;-60
2022/07/02 08:57:12;;;;;;;1999.90;999.90;;;19.30;99.90;;;;;;5112279;28;20044;-60
2022/07/02 08:59:39;;;;;;;1999.90;999.90;;;19.30;98.00;;;;;;5112838;28;20077;-60
2022/07/02 09:02:06;;;;;;;1999.90;999.90;;;19.20;98.60;;;;;;5084020;28;20071;-60
2022/07/02 09:04:34;;;;;;;1999.90;999.90;;;19.40;98.70;;;;;;5111116;28;20520;-60
2022/07/02 09:07:02;;;;;;;977.30;475.10;;;19.30;96.90;;;;;;5113184;28;20039;-60
2022/07/02 09:09:29;;;;;;;1999.90;999.90;;;19.40;96.90;;;;;;5092817;28;20106;-60
2022/07/02 09:11:57;;;;;;;1999.90;999.90;;;19.40;99.00;;;;;;5098941;28;20122;-60
2022/07/02 09:14:23;;;;;;;1999.90;999.90;;;19.60;99.00;;;;;;5112593;28;20050;-60
2022/07/02 09:16:50;;;;;;;1505.10;754.55;;;19.70;96.90;;;;;;5112743;28;20044;-61
2022/07/02 09:19:17;;;;;;;1999.90;999.90;;;19.90;98.30;;;;;;5093751;28;20143;-60
2022/07/02 09:21:49;;;;;;;1999.90;999.90;;;19.90;98.90;;;;;;5111816;28;20393;-60
2022/07/02 09:24:25;;;;;;;1999.90;999.90;;;20.00;98.30;;;;;;5112879;28;20048;-61
2022/07/02 09:27:01;;;;;;;1999.90;999.90;;;20.00;97.90;;;;;;5112119;28;20073;-60
2022/07/02 09:29:27;;;;;;;1999.90;999.90;;;19.90;95.40;;;;;;5112536;28;20035;-60
2022/07/02 09:31:53;;;;;;;1999.90;999.90;;;19.80;94.30;;;;;;5111787;28;20405;-60
2022/07/02 09:34:24;;;;;;;1999.90;999.90;;;19.90;94.70;;;;;;5112049;28;20042;-60
2022/07/02 09:36:50;;;;;;;1999.90;999.90;;;19.90;95.50;;;;;;5112692;28;20481;-60
2022/07/02 09:39:27;;;;;;;1999.90;999.90;;;20.20;96.20;;;;;;5110598;28;20044;-60
2022/07/02 09:41:53;;;;;;;1999.90;999.90;;;20.50;95.40;;;;;;5114322;28;20047;-60
2022/07/02 09:44:19;;;;;;;1999.90;999.90;;;20.30;93.20;;;;;;5111277;28;20115;-60
2022/07/02 09:46:45;;;;;;;1999.90;999.90;;;20.30;95.60;;;;;;5101063;28;20050;-60
2022/07/02 09:49:12;;;;;;;1999.90;999.90;;;20.10;93.00;;;;;;5115988;28;20050;-60
2022/07/02 09:51:50;;;;;;;1999.90;999.90;;;20.30;95.70;;;;;;5109120;28;20165;-60
2022/07/02 09:54:24;;;;;;;1999.90;999.90;;;20.60;91.60;;;;;;5115443;28;20047;-60
2022/07/02 09:56:57;;;;;;;1999.90;999.90;;;20.60;94.30;;;;;;5115426;28;20112;-60
2022/07/02 09:59:24;;;;;;;1999.90;999.90;;;20.60;94.10;;;;;;5116009;28;20304;-60
2022/07/02 10:01:50;;;;;;;1999.90;999.90;;;20.90;95.70;;;;;;5099229;28;20046;-60
2022/07/02 10:04:27;;;;;;;1999.90;999.90;;;20.90;93.20;;;;;;5088961;28;20060;-60
2022/07/02 10:06:53;;;;;;;1999.90;999.90;;;20.60;90.50;;;;;;5116001;28;20045;-60
2022/07/02 10:09:21;;;;;;;1999.90;999.90;;;20.70;93.50;;;;;;5115227;28;20119;-59
2022/07/02 10:11:47;;;;;;;1999.90;999.90;;;20.90;93.00;;;;;;5116037;28;20489;-60
2022/07/02 10:14:17;;;;;;;1999.90;999.90;;;21.10;92.80;;;;;;5115257;28;20105;-60
2022/07/02 10:16:43;;;;;;;1999.90;999.90;;;21.30;93.00;;;;;;5115009;28;20042;-60
2022/07/02 10:19:10;;;;;;;1999.90;999.90;;;21.20;91.90;;;;;;5115874;28;20083;-60
2022/07/02 10:21:38;;;;;;;1999.90;999.90;;;21.30;93.10;;;;;;5115413;28;20040;-59
2022/07/02 10:24:06;;;;;;;1999.90;999.90;;;21.40;90.70;;;;;;5112941;28;20485;-60
2022/07/02 10:26:32;;;;;;;1999.90;999.90;;;21.30;90.80;;;;;;5097186;28;20035;-60
2022/07/02 10:29:02;;;;;;;1061.60;525.00;;;21.60;92.30;;;;;;5114791;28;20096;-60
2022/07/02 10:31:32;;;;;;;1999.90;999.90;;;21.80;87.30;;;;;;5115682;28;20043;-60
2022/07/02 10:34:25;;;;;;;1999.90;999.90;;;22.00;89.80;;;;;;5115958;28;20569;-60
2022/07/02 10:36:52;;;;;;;1999.90;999.90;;;22.00;90.30;;;;;;5115134;28;20043;-60
2022/07/02 10:39:19;;;;;;;1999.90;999.90;;;22.00;90.00;;;;;;5096811;28;20053;-60
2022/07/02 10:41:45;;;;;;;1999.90;999.90;;;22.20;88.10;;;;;;5115317;28;20108;-60
2022/07/02 10:44:11;;;;;;;1999.90;999.90;;;22.80;89.20;;;;;;5114610;28;20094;-60
2022/07/02 10:46:37;;;;;;;1999.90;999.90;;;23.30;85.40;;;;;;5097043;28;20091;-60
2022/07/02 10:49:05;;;;;;;1999.90;999.90;;;23.30;85.90;;;;;;5115968;28;20044;-60
2022/07/02 10:51:35;;;;;;;1999.90;999.90;;;23.10;78.20;;;;;;5113213;28;20047;-60
2022/07/02 10:54:04;;;;;;;1999.90;999.90;;;23.10;75.70;;;;;;5115354;28;20134;-60
2022/07/02 10:56:44;;;;;;;1999.90;999.90;;;23.40;78.90;;;;;;5115528;28;20515;-60
2022/07/02 10:59:25;;;;;;;1999.90;999.90;;;23.40;74.00;;;;;;5115130;28;20103;-60
2022/07/02 11:02:02;;;;;;;1999.90;999.90;;;22.70;71.20;;;;;;5115411;28;20118;-60
2022/07/02 11:04:28;;;;;;;1999.90;999.90;;;23.20;82.80;;;;;;5114687;28;20378;-60
2022/07/02 11:07:05;;;;;;;1999.90;999.90;;;23.10;76.20;;;;;;5115011;28;20107;-60
2022/07/02 11:09:31;;;;;;;1999.90;999.90;;;22.90;77.50;;;;;;5094812;28;20044;-60
2022/07/02 11:12:00;;;;;;;1999.90;999.90;;;23.00;77.20;;;;;;5095366;28;20044;-60
2022/07/02 11:14:26;;;;;;;1999.90;999.90;;;23.50;75.70;;;;;;5115244;28;20050;-60
2022/07/02 11:16:53;;;;;;;873.13;396.52;;;23.90;74.60;;;;;;5114651;28;20109;-60
2022/07/02 11:19:24;;;;;;;1999.90;999.90;;;23.50;70.10;;;;;;5114025;28;20043;-60
2022/07/02 11:21:54;;;;;;;1999.90;999.90;;;23.20;71.00;;;;;;5115323;28;20092;-60
2022/07/02 11:24:23;;;;;;;1999.90;999.90;;;23.20;73.40;;;;;;5114198;28;20050;-60
2022/07/02 11:26:49;;;;;;;1999.90;999.90;;;23.40;72.50;;;;;;5113730;28;20226;-60
2022/07/02 11:29:15;;;;;;;1999.90;999.90;;;22.80;76.30;;;;;;5114701;28;20485;-60
2022/07/02 11:31:46;;;;;;;1999.90;999.90;;;23.00;75.30;;;;;;5114459;28;20035;-60
2022/07/02 11:34:20;;;;;;;1999.90;999.90;;;23.00;73.90;;;;;;5110969;28;20473;-60
2022/07/02 11:36:47;;;;;;;1999.90;999.90;;;22.50;78.00;;;;;;5114416;28;20124;-60
2022/07/02 11:39:16;;;;;;;1999.90;999.90;;;22.20;80.00;;;;;;5113417;28;20051;-60
2022/07/02 11:41:44;;;;;;;1999.90;999.90;;;22.30;77.10;;;;;;5114678;28;20044;-60
2022/07/02 11:44:20;;;;;;;1999.90;999.90;;;22.80;76.90;;;;;;5114036;28;20131;-60
2022/07/02 11:46:54;;;;;;;1999.90;999.90;;;22.20;77.50;;;;;;5113701;28;20055;-60
2022/07/02 11:49:22;;;;;;;1999.90;999.90;;;22.20;82.20;;;;;;5114545;28;20118;-60
2022/07/02 11:51:50;;;;;;;1999.90;999.90;;;22.60;75.70;;;;;;5113957;28;20222;-60
2022/07/02 11:54:17;;;;;;;1999.90;999.90;;;23.10;73.60;;;;;;5110267;28;20397;-60
2022/07/02 11:56:45;;;;;;;1999.90;999.90;;;23.80;77.00;;;;;;5113707;28;20135;-60
2022/07/02 11:59:13;;;;;;;1999.90;999.90;;;24.20;71.00;;;;;;5113393;28;20052;-60
2022/07/02 12:01:41;;;;;;;1999.90;999.90;;;24.90;71.10;;;;;;5111811;28;20473;-60
2022/07/02 12:04:09;;;;;;;1999.90;999.90;;;25.00;66.10;;;;;;5095350;28;20040;-60
2022/07/02 12:06:37;;;;;;;1999.90;999.90;;;24.60;63.90;;;;;;5113669;28;20040;-60
2022/07/02 12:09:06;;;;;;;1999.90;999.90;;;24.80;67.20;;;;;;5093814;28;20163;-60